sensor_id;sensor_type;location;lat;lon;timestamp;pressure;altitude;pressure_sealevel;temperature;humidity
73941;BME280;62294;48.554;10.202;2022-09-09T00:00:25;95887.19;;;9.25;88.20
73941;BME280;62294;48.554;10.202;2022-09-09T00:03:19;95886.47;;;9.43;88.29
73941;BME280;62294;48.554;10.202;2022-09-09T00:06:00;95882.03;;;9.61;87.38
73941;BME280;62294;48.554;10.202;2022-09-09T00:08:47;95882.25;;;9.60;87.08
73941;BME280;62294;48.554;10.202;2022-09-09T00:11:28;95880.03;;;9.57;86.84
73941;BME280;62294;48.554;10.202;2022-09-09T00:14:00;95880.09;;;9.50;86.91
73941;BME280;62294;48.554;10.202;2022-09-09T00:16:32;95889.28;;;9.48;87.47
73941;BME280;62294;48.554;10.202;2022-09-09T00:21:39;95881.59;;;9.64;87.27
73941;BME280;62294;48.554;10.202;2022-09-09T00:24:26;95884.03;;;9.66;86.89
73941;BME280;62294;48.554;10.202;2022-09-09T00:29:52;95889.03;;;9.56;87.89
73941;BME280;62294;48.554;10.202;2022-09-09T00:32:20;95884.03;;;9.66;87.39
73941;BME280;62294;48.554;10.202;2022-09-09T00:34:55;95881.91;;;9.74;87.47
73941;BME280;62294;48.554;10.202;2022-09-09T00:37:24;95881.41;;;9.84;86.60
73941;BME280;62294;48.554;10.202;2022-09-09T00:39:55;95879.41;;;9.79;86.13
73941;BME280;62294;48.554;10.202;2022-09-09T00:42:25;95876.19;;;9.77;85.96
73941;BME280;62294;48.554;10.202;2022-09-09T00:44:59;95880.56;;;9.65;85.67
73941;BME280;62294;48.554;10.202;2022-09-09T00:47:43;95877.44;;;9.50;85.87
73941;BME280;62294;48.554;10.202;2022-09-09T00:52:56;95892.09;;;9.28;86.46
73941;BME280;62294;48.554;10.202;2022-09-09T00:55:41;95887.03;;;9.20;86.38
73941;BME280;62294;48.554;10.202;2022-09-09T00:58:12;95886.66;;;9.16;86.68
73941;BME280;62294;48.554;10.202;2022-09-09T01:00:42;95883.66;;;9.06;87.16
73941;BME280;62294;48.554;10.202;2022-09-09T01:03:28;95881.03;;;9.00;87.80
73941;BME280;62294;48.554;10.202;2022-09-09T01:06:17;95875.16;;;8.98;87.84
73941;BME280;62294;48.554;10.202;2022-09-09T01:11:22;95886.75;;;8.97;87.73
73941;BME280;62294;48.554;10.202;2022-09-09T01:13:58;95876.16;;;9.03;87.37
73941;BME280;62294;48.554;10.202;2022-09-09T01:16:27;95882.88;;;8.99;87.59
73941;BME280;62294;48.554;10.202;2022-09-09T01:18:56;95884.56;;;8.94;87.71
73941;BME280;62294;48.554;10.202;2022-09-09T01:27:05;95877.16;;;9.02;86.91
73941;BME280;62294;48.554;10.202;2022-09-09T01:29:33;95873.09;;;9.00;87.00
73941;BME280;62294;48.554;10.202;2022-09-09T01:34:46;95864.22;;;8.81;88.25
73941;BME280;62294;48.554;10.202;2022-09-09T01:37:13;95869.16;;;8.78;87.75
73941;BME280;62294;48.554;10.202;2022-09-09T01:39:42;95860.63;;;8.69;88.20
73941;BME280;62294;48.554;10.202;2022-09-09T01:42:12;95862.22;;;8.77;87.88
73941;BME280;62294;48.554;10.202;2022-09-09T01:44:40;95868.09;;;8.79;87.70
73941;BME280;62294;48.554;10.202;2022-09-09T01:47:06;95868.94;;;8.79;87.58
73941;BME280;62294;48.554;10.202;2022-09-09T01:49:33;95863.66;;;8.73;87.67
73941;BME280;62294;48.554;10.202;2022-09-09T01:52:00;95862.88;;;8.66;87.81
73941;BME280;62294;48.554;10.202;2022-09-09T01:54:29;95864.34;;;8.62;87.97
73941;BME280;62294;48.554;10.202;2022-09-09T02:02:11;95854.94;;;8.66;88.18
73941;BME280;62294;48.554;10.202;2022-09-09T02:04:43;95842.69;;;8.71;87.67
73941;BME280;62294;48.554;10.202;2022-09-09T02:07:38;95855.72;;;8.73;87.72
73941;BME280;62294;48.554;10.202;2022-09-09T02:10:12;95860.66;;;8.63;87.58
73941;BME280;62294;48.554;10.202;2022-09-09T02:12:45;95855.34;;;8.63;87.71
73941;BME280;62294;48.554;10.202;2022-09-09T02:16:23;95849.63;;;8.66;87.81
73941;BME280;62294;48.554;10.202;2022-09-09T02:18:24;95850.84;;;8.70;87.25
73941;BME280;62294;48.554;10.202;2022-09-09T02:20:53;95857.16;;;8.69;87.05
73941;BME280;62294;48.554;10.202;2022-09-09T02:23:20;95852.47;;;8.71;86.83
73941;BME280;62294;48.554;10.202;2022-09-09T02:25:48;95853.75;;;8.62;86.76
73941;BME280;62294;48.554;10.202;2022-09-09T02:28:19;95852.72;;;8.56;86.90
73941;BME280;62294;48.554;10.202;2022-09-09T02:30:49;95857.03;;;8.57;87.04
73941;BME280;62294;48.554;10.202;2022-09-09T02:33:25;95846.66;;;8.49;87.36
73941;BME280;62294;48.554;10.202;2022-09-09T02:35:53;95843.63;;;8.45;87.81
73941;BME280;62294;48.554;10.202;2022-09-09T02:38:26;95845.06;;;8.41;87.85
73941;BME280;62294;48.554;10.202;2022-09-09T02:40:55;95840.00;;;8.33;87.78
73941;BME280;62294;48.554;10.202;2022-09-09T02:43:21;95843.69;;;8.32;88.15
73941;BME280;62294;48.554;10.202;2022-09-09T02:46:26;95841.44;;;8.29;87.96
73941;BME280;62294;48.554;10.202;2022-09-09T02:48:56;95844.50;;;8.20;88.45
73941;BME280;62294;48.554;10.202;2022-09-09T02:51:35;95836.38;;;8.21;88.26
73941;BME280;62294;48.554;10.202;2022-09-09T02:54:17;95837.16;;;8.35;88.12
73941;BME280;62294;48.554;10.202;2022-09-09T02:56:52;95848.53;;;8.35;87.87
73941;BME280;62294;48.554;10.202;2022-09-09T02:59:21;95851.81;;;8.31;88.24
73941;BME280;62294;48.554;10.202;2022-09-09T03:01:48;95858.34;;;8.28;88.70
73941;BME280;62294;48.554;10.202;2022-09-09T03:04:14;95862.81;;;8.34;88.53
73941;BME280;62294;48.554;10.202;2022-09-09T03:06:41;95868.50;;;8.38;88.59
73941;BME280;62294;48.554;10.202;2022-09-09T03:09:08;95858.31;;;8.41;87.86
73941;BME280;62294;48.554;10.202;2022-09-09T03:11:36;95856.25;;;8.50;87.64
73941;BME280;62294;48.554;10.202;2022-09-09T03:14:04;95849.72;;;8.52;87.46
73941;BME280;62294;48.554;10.202;2022-09-09T03:16:31;95845.22;;;8.46;87.17
73941;BME280;62294;48.554;10.202;2022-09-09T03:18:59;95849.28;;;8.49;86.59
73941;BME280;62294;48.554;10.202;2022-09-09T03:21:26;95852.56;;;8.44;87.25
73941;BME280;62294;48.554;10.202;2022-09-09T03:23:52;95848.50;;;8.48;87.05
73941;BME280;62294;48.554;10.202;2022-09-09T03:26:19;95855.22;;;8.44;87.75
73941;BME280;62294;48.554;10.202;2022-09-09T03:28:47;95858.66;;;8.51;87.97
73941;BME280;62294;48.554;10.202;2022-09-09T03:31:13;95855.72;;;8.73;87.68
73941;BME280;62294;48.554;10.202;2022-09-09T03:33:40;95850.34;;;8.86;86.92
73941;BME280;62294;48.554;10.202;2022-09-09T03:36:10;95849.66;;;8.97;87.26
73941;BME280;62294;48.554;10.202;2022-09-09T03:38:37;95842.66;;;9.09;86.84
73941;BME280;62294;48.554;10.202;2022-09-09T03:41:03;95838.22;;;9.03;86.64
73941;BME280;62294;48.554;10.202;2022-09-09T03:43:33;95839.78;;;9.10;87.08
73941;BME280;62294;48.554;10.202;2022-09-09T03:46:00;95848.03;;;9.27;87.30
73941;BME280;62294;48.554;10.202;2022-09-09T03:48:27;95850.94;;;9.19;87.90
73941;BME280;62294;48.554;10.202;2022-09-09T03:50:55;95851.25;;;9.29;88.51
73941;BME280;62294;48.554;10.202;2022-09-09T03:53:28;95857.72;;;9.40;88.47
73941;BME280;62294;48.554;10.202;2022-09-09T03:55:56;95857.78;;;9.33;89.47
73941;BME280;62294;48.554;10.202;2022-09-09T03:58:26;95854.84;;;9.41;89.06
73941;BME280;62294;48.554;10.202;2022-09-09T04:00:57;95859.41;;;9.59;88.61
73941;BME280;62294;48.554;10.202;2022-09-09T04:03:25;95867.56;;;9.82;87.89
73941;BME280;62294;48.554;10.202;2022-09-09T04:05:55;95870.44;;;9.80;88.04
73941;BME280;62294;48.554;10.202;2022-09-09T04:08:22;95869.66;;;9.98;87.74
73941;BME280;62294;48.554;10.202;2022-09-09T04:10:52;95864.81;;;10.13;87.02
73941;BME280;62294;48.554;10.202;2022-09-09T04:13:19;95870.09;;;10.20;86.18
73941;BME280;62294;48.554;10.202;2022-09-09T04:15:54;95866.81;;;10.18;85.30
73941;BME280;62294;48.554;10.202;2022-09-09T04:18:21;95883.44;;;10.07;85.61
73941;BME280;62294;48.554;10.202;2022-09-09T04:20:50;95867.28;;;10.15;86.14
73941;BME280;62294;48.554;10.202;2022-09-09T04:23:17;95857.75;;;9.82;86.17
73941;BME280;62294;48.554;10.202;2022-09-09T04:25:49;95870.72;;;9.48;87.81
73941;BME280;62294;48.554;10.202;2022-09-09T04:28:18;95869.59;;;9.62;87.91
73941;BME280;62294;48.554;10.202;2022-09-09T04:30:45;95876.47;;;9.69;87.25
73941;BME280;62294;48.554;10.202;2022-09-09T04:33:13;95869.63;;;9.55;87.39
73941;BME280;62294;48.554;10.202;2022-09-09T04:35:48;95875.53;;;9.33;87.88
73941;BME280;62294;48.554;10.202;2022-09-09T04:38:16;95868.28;;;9.46;87.91
73941;BME280;62294;48.554;10.202;2022-09-09T04:40:46;95864.41;;;9.49;88.42
73941;BME280;62294;48.554;10.202;2022-09-09T04:43:13;95856.09;;;9.63;88.67
73941;BME280;62294;48.554;10.202;2022-09-09T04:45:41;95861.50;;;9.75;88.47
73941;BME280;62294;48.554;10.202;2022-09-09T04:48:09;95866.09;;;9.86;88.31
73941;BME280;62294;48.554;10.202;2022-09-09T04:50:38;95866.47;;;9.89;88.41
73941;BME280;62294;48.554;10.202;2022-09-09T04:53:05;95867.06;;;9.91;87.58
73941;BME280;62294;48.554;10.202;2022-09-09T04:55:33;95866.63;;;9.94;87.63
73941;BME280;62294;48.554;10.202;2022-09-09T04:58:05;95867.28;;;9.65;88.65
73941;BME280;62294;48.554;10.202;2022-09-09T05:00:33;95861.88;;;9.78;88.77
73941;BME280;62294;48.554;10.202;2022-09-09T05:03:04;95871.72;;;9.96;88.78
73941;BME280;62294;48.554;10.202;2022-09-09T05:05:32;95864.78;;;10.20;89.32
73941;BME280;62294;48.554;10.202;2022-09-09T05:08:03;95869.59;;;10.59;88.19
73941;BME280;62294;48.554;10.202;2022-09-09T05:10:31;95881.28;;;10.58;88.18
73941;BME280;62294;48.554;10.202;2022-09-09T05:12:58;95878.69;;;10.69;88.65
73941;BME280;62294;48.554;10.202;2022-09-09T05:15:25;95873.66;;;10.61;89.11
73941;BME280;62294;48.554;10.202;2022-09-09T05:17:52;95883.69;;;10.78;88.91
73941;BME280;62294;48.554;10.202;2022-09-09T05:20:21;95871.66;;;10.75;88.55
73941;BME280;62294;48.554;10.202;2022-09-09T05:22:47;95879.63;;;10.75;89.11
73941;BME280;62294;48.554;10.202;2022-09-09T05:25:14;95880.06;;;10.90;89.19
73941;BME280;62294;48.554;10.202;2022-09-09T05:27:40;95888.59;;;11.10;88.84
73941;BME280;62294;48.554;10.202;2022-09-09T05:30:17;95893.72;;;11.23;88.14
73941;BME280;62294;48.554;10.202;2022-09-09T05:32:45;95893.41;;;11.31;87.90
73941;BME280;62294;48.554;10.202;2022-09-09T05:35:12;95892.38;;;11.44;87.83
73941;BME280;62294;48.554;10.202;2022-09-09T05:37:39;95887.75;;;11.39;87.52
73941;BME280;62294;48.554;10.202;2022-09-09T05:40:06;95883.44;;;11.27;87.75
73941;BME280;62294;48.554;10.202;2022-09-09T05:42:33;95882.63;;;11.26;87.60
73941;BME280;62294;48.554;10.202;2022-09-09T05:44:59;95875.41;;;11.15;87.77
73941;BME280;62294;48.554;10.202;2022-09-09T05:47:26;95881.91;;;11.19;87.96
73941;BME280;62294;48.554;10.202;2022-09-09T05:49:54;95880.66;;;11.22;87.93
73941;BME280;62294;48.554;10.202;2022-09-09T05:52:21;95870.47;;;11.30;88.23
73941;BME280;62294;48.554;10.202;2022-09-09T05:54:49;95884.25;;;11.39;87.98
73941;BME280;62294;48.554;10.202;2022-09-09T05:57:15;95897.84;;;11.49;88.75
73941;BME280;62294;48.554;10.202;2022-09-09T05:59:42;95886.09;;;11.68;88.34
73941;BME280;62294;48.554;10.202;2022-09-09T06:02:09;95890.28;;;11.76;88.22
73941;BME280;62294;48.554;10.202;2022-09-09T06:04:35;95896.75;;;11.80;87.30
73941;BME280;62294;48.554;10.202;2022-09-09T06:07:02;95891.22;;;11.93;87.38
73941;BME280;62294;48.554;10.202;2022-09-09T06:09:28;95885.31;;;11.91;86.41
73941;BME280;62294;48.554;10.202;2022-09-09T06:11:56;95899.88;;;11.77;87.00
73941;BME280;62294;48.554;10.202;2022-09-09T06:14:24;95895.84;;;11.86;86.43
73941;BME280;62294;48.554;10.202;2022-09-09T06:16:53;95890.16;;;12.05;86.28
73941;BME280;62294;48.554;10.202;2022-09-09T06:19:19;95890.41;;;12.04;86.59
73941;BME280;62294;48.554;10.202;2022-09-09T06:21:47;95874.75;;;12.31;86.94
73941;BME280;62294;48.554;10.202;2022-09-09T06:24:14;95870.09;;;12.49;86.84
73941;BME280;62294;48.554;10.202;2022-09-09T06:26:43;95873.75;;;12.60;86.16
73941;BME280;62294;48.554;10.202;2022-09-09T06:29:11;95861.09;;;13.18;85.93
73941;BME280;62294;48.554;10.202;2022-09-09T06:31:38;95842.13;;;13.48;83.71
73941;BME280;62294;48.554;10.202;2022-09-09T06:34:07;95838.06;;;13.79;84.18
73941;BME280;62294;48.554;10.202;2022-09-09T06:36:38;95840.56;;;13.52;84.06
73941;BME280;62294;48.554;10.202;2022-09-09T06:39:05;95886.19;;;13.34;83.66
73941;BME280;62294;48.554;10.202;2022-09-09T06:41:39;95898.22;;;12.68;85.64
73941;BME280;62294;48.554;10.202;2022-09-09T06:44:06;95896.75;;;12.49;86.24
73941;BME280;62294;48.554;10.202;2022-09-09T06:46:33;95901.00;;;12.50;86.91
73941;BME280;62294;48.554;10.202;2022-09-09T06:48:59;95896.22;;;12.75;86.04
73941;BME280;62294;48.554;10.202;2022-09-09T06:51:31;95901.59;;;13.04;85.84
73941;BME280;62294;48.554;10.202;2022-09-09T06:54:00;95903.78;;;13.35;85.67
73941;BME280;62294;48.554;10.202;2022-09-09T06:56:30;95903.88;;;13.68;84.33
73941;BME280;62294;48.554;10.202;2022-09-09T06:59:00;95905.97;;;13.83;83.86
73941;BME280;62294;48.554;10.202;2022-09-09T07:01:32;95905.97;;;13.83;83.06
73941;BME280;62294;48.554;10.202;2022-09-09T07:03:59;95910.81;;;13.69;83.03
73941;BME280;62294;48.554;10.202;2022-09-09T07:06:28;95888.38;;;14.20;84.15
73941;BME280;62294;48.554;10.202;2022-09-09T07:08:57;95898.34;;;14.24;80.93
73941;BME280;62294;48.554;10.202;2022-09-09T07:11:27;95912.94;;;13.84;81.60
73941;BME280;62294;48.554;10.202;2022-09-09T07:13:55;95899.72;;;14.44;82.11
73941;BME280;62294;48.554;10.202;2022-09-09T07:16:23;95901.19;;;14.73;81.38
73941;BME280;62294;48.554;10.202;2022-09-09T07:18:51;95911.06;;;15.42;76.37
73941;BME280;62294;48.554;10.202;2022-09-09T07:21:19;95899.31;;;16.02;75.77
73941;BME280;62294;48.554;10.202;2022-09-09T07:23:47;95896.44;;;15.77;75.11
73941;BME280;62294;48.554;10.202;2022-09-09T07:26:16;95901.59;;;17.03;76.69
73941;BME280;62294;48.554;10.202;2022-09-09T07:28:43;95902.09;;;16.12;73.94
73941;BME280;62294;48.554;10.202;2022-09-09T07:31:15;95902.81;;;16.39;72.74
73941;BME280;62294;48.554;10.202;2022-09-09T07:33:43;95895.72;;;16.60;74.94
73941;BME280;62294;48.554;10.202;2022-09-09T07:36:16;95905.31;;;17.02;70.58
73941;BME280;62294;48.554;10.202;2022-09-09T07:38:51;95906.13;;;17.75;69.60
73941;BME280;62294;48.554;10.202;2022-09-09T07:41:21;95908.25;;;17.78;68.31
73941;BME280;62294;48.554;10.202;2022-09-09T07:43:49;95905.50;;;17.53;72.31
73941;BME280;62294;48.554;10.202;2022-09-09T07:46:17;95910.41;;;17.76;69.01
73941;BME280;62294;48.554;10.202;2022-09-09T07:48:50;95912.56;;;18.04;67.33
73941;BME280;62294;48.554;10.202;2022-09-09T07:51:22;95912.78;;;16.85;70.51
73941;BME280;62294;48.554;10.202;2022-09-09T07:53:56;95913.97;;;16.21;74.43
73941;BME280;62294;48.554;10.202;2022-09-09T07:56:25;95911.25;;;17.10;72.02
73941;BME280;62294;48.554;10.202;2022-09-09T07:58:54;95913.59;;;16.91;72.10
73941;BME280;62294;48.554;10.202;2022-09-09T08:01:28;95910.78;;;17.18;73.07
73941;BME280;62294;48.554;10.202;2022-09-09T08:03:56;95911.84;;;17.22;71.03
73941;BME280;62294;48.554;10.202;2022-09-09T08:06:27;95906.09;;;18.30;67.75
73941;BME280;62294;48.554;10.202;2022-09-09T08:08:53;95907.72;;;18.31;68.01
73941;BME280;62294;48.554;10.202;2022-09-09T08:11:24;95903.69;;;17.89;70.26
73941;BME280;62294;48.554;10.202;2022-09-09T08:13:51;95917.97;;;18.50;67.52
73941;BME280;62294;48.554;10.202;2022-09-09T08:16:23;95917.94;;;18.44;67.17
73941;BME280;62294;48.554;10.202;2022-09-09T08:18:51;95921.69;;;17.98;68.95
73941;BME280;62294;48.554;10.202;2022-09-09T08:21:21;95919.03;;;17.88;71.13
73941;BME280;62294;48.554;10.202;2022-09-09T08:23:47;95930.69;;;19.23;66.70
73941;BME280;62294;48.554;10.202;2022-09-09T08:26:25;95924.38;;;18.69;68.93
73941;BME280;62294;48.554;10.202;2022-09-09T08:28:54;95911.31;;;19.16;66.18
73941;BME280;62294;48.554;10.202;2022-09-09T08:31:30;95916.63;;;19.26;65.01
73941;BME280;62294;48.554;10.202;2022-09-09T08:33:58;95914.44;;;18.59;68.37
73941;BME280;62294;48.554;10.202;2022-09-09T08:36:33;95919.81;;;18.39;68.85
73941;BME280;62294;48.554;10.202;2022-09-09T08:39:00;95916.69;;;19.16;67.82
73941;BME280;62294;48.554;10.202;2022-09-09T08:50:28;95923.50;;;20.01;62.96
73941;BME280;62294;48.554;10.202;2022-09-09T08:53:56;95924.75;;;19.21;67.96
73941;BME280;62294;48.554;10.202;2022-09-09T08:55:57;95918.56;;;20.13;63.13
73941;BME280;62294;48.554;10.202;2022-09-09T08:58:30;95927.94;;;19.38;66.93
73941;BME280;62294;48.554;10.202;2022-09-09T09:04:04;95919.84;;;18.54;68.44
73941;BME280;62294;48.554;10.202;2022-09-09T09:09:46;95903.59;;;20.31;63.72
73941;BME280;62294;48.554;10.202;2022-09-09T09:12:20;95916.25;;;19.97;65.05
73941;BME280;62294;48.554;10.202;2022-09-09T09:14:48;95916.03;;;20.84;61.02
73941;BME280;62294;48.554;10.202;2022-09-09T09:17:19;95907.28;;;21.21;58.43
73941;BME280;62294;48.554;10.202;2022-09-09T09:19:47;95904.38;;;21.97;57.55
73941;BME280;62294;48.554;10.202;2022-09-09T09:22:21;95907.25;;;20.97;59.98
73941;BME280;62294;48.554;10.202;2022-09-09T09:27:18;95905.38;;;21.22;59.04
73941;BME280;62294;48.554;10.202;2022-09-09T09:29:49;95915.16;;;20.65;63.29
73941;BME280;62294;48.554;10.202;2022-09-09T09:32:39;95904.16;;;21.70;57.88
73941;BME280;62294;48.554;10.202;2022-09-09T09:35:11;95898.59;;;20.48;61.24
73941;BME280;62294;48.554;10.202;2022-09-09T09:37:40;95911.00;;;19.28;64.36
73941;BME280;62294;48.554;10.202;2022-09-09T09:40:27;95908.50;;;18.72;67.02
73941;BME280;62294;48.554;10.202;2022-09-09T09:42:58;95902.72;;;19.09;65.34
73941;BME280;62294;48.554;10.202;2022-09-09T09:45:33;95898.28;;;19.43;64.88
73941;BME280;62294;48.554;10.202;2022-09-09T09:48:05;95906.09;;;18.56;68.49
73941;BME280;62294;48.554;10.202;2022-09-09T09:50:33;95906.66;;;18.27;69.83
73941;BME280;62294;48.554;10.202;2022-09-09T09:53:04;95899.91;;;18.55;68.16
73941;BME280;62294;48.554;10.202;2022-09-09T09:55:33;95896.06;;;18.86;68.21
73941;BME280;62294;48.554;10.202;2022-09-09T09:58:03;95896.00;;;19.99;64.45
73941;BME280;62294;48.554;10.202;2022-09-09T10:00:31;95906.47;;;19.67;64.57
73941;BME280;62294;48.554;10.202;2022-09-09T10:02:59;95903.75;;;19.23;64.27
73941;BME280;62294;48.554;10.202;2022-09-09T10:05:28;95897.97;;;18.81;65.68
73941;BME280;62294;48.554;10.202;2022-09-09T10:08:04;95908.47;;;19.46;64.80
73941;BME280;62294;48.554;10.202;2022-09-09T10:11:00;95894.75;;;19.87;64.36
73941;BME280;62294;48.554;10.202;2022-09-09T10:14:00;95898.84;;;20.75;60.02
73941;BME280;62294;48.554;10.202;2022-09-09T10:16:53;95894.09;;;20.67;59.73
73941;BME280;62294;48.554;10.202;2022-09-09T10:19:37;95888.53;;;19.47;63.89
73941;BME280;62294;48.554;10.202;2022-09-09T10:30:24;95875.59;;;20.22;63.82
73941;BME280;62294;48.554;10.202;2022-09-09T10:33:08;95882.34;;;19.47;64.28
73941;BME280;62294;48.554;10.202;2022-09-09T10:38:41;95872.63;;;19.90;63.12
73941;BME280;62294;48.554;10.202;2022-09-09T10:42:16;95874.56;;;19.40;63.55
73941;BME280;62294;48.554;10.202;2022-09-09T10:55:19;95877.66;;;21.72;59.05
73941;BME280;62294;48.554;10.202;2022-09-09T10:57:48;95877.56;;;21.40;57.92
73941;BME280;62294;48.554;10.202;2022-09-09T11:00:45;95876.44;;;19.83;60.71
73941;BME280;62294;48.554;10.202;2022-09-09T11:03:18;95884.34;;;19.21;64.15
73941;BME280;62294;48.554;10.202;2022-09-09T11:05:55;95880.88;;;19.16;63.49
73941;BME280;62294;48.554;10.202;2022-09-09T11:08:29;95887.09;;;19.06;60.06
73941;BME280;62294;48.554;10.202;2022-09-09T11:13:37;95874.97;;;19.08;54.29
73941;BME280;62294;48.554;10.202;2022-09-09T11:21:42;95875.22;;;20.00;47.89
73941;BME280;62294;48.554;10.202;2022-09-09T11:24:18;95870.72;;;20.24;48.76
73941;BME280;62294;48.554;10.202;2022-09-09T11:26:58;95874.72;;;19.98;49.67
73941;BME280;62294;48.554;10.202;2022-09-09T11:32:21;95873.19;;;19.87;51.53
73941;BME280;62294;48.554;10.202;2022-09-09T11:35:11;95878.09;;;19.79;54.51
73941;BME280;62294;48.554;10.202;2022-09-09T11:38:21;95884.69;;;19.58;57.29
73941;BME280;62294;48.554;10.202;2022-09-09T11:41:00;95880.53;;;19.32;56.77
73941;BME280;62294;48.554;10.202;2022-09-09T11:43:31;95879.81;;;19.06;56.99
73941;BME280;62294;48.554;10.202;2022-09-09T11:46:01;95869.81;;;19.17;57.10
73941;BME280;62294;48.554;10.202;2022-09-09T11:51:08;95864.94;;;22.23;49.92
73941;BME280;62294;48.554;10.202;2022-09-09T11:53:50;95861.00;;;21.04;49.63
73941;BME280;62294;48.554;10.202;2022-09-09T11:56:28;95866.59;;;23.24;44.61
73941;BME280;62294;48.554;10.202;2022-09-09T11:59:02;95865.22;;;22.40;45.82
73941;BME280;62294;48.554;10.202;2022-09-09T12:01:33;95878.16;;;20.89;47.14
73941;BME280;62294;48.554;10.202;2022-09-09T12:04:11;95869.88;;;20.57;48.52
73941;BME280;62294;48.554;10.202;2022-09-09T12:06:51;95869.34;;;20.79;49.55
73941;BME280;62294;48.554;10.202;2022-09-09T12:15:16;95870.97;;;19.94;50.90
73941;BME280;62294;48.554;10.202;2022-09-09T12:26:05;95853.63;;;22.67;45.01
73941;BME280;62294;48.554;10.202;2022-09-09T12:39:49;95829.19;;;20.96;46.73
73941;BME280;62294;48.554;10.202;2022-09-09T12:42:23;95833.41;;;21.07;47.17
73941;BME280;62294;48.554;10.202;2022-09-09T12:45:00;95834.44;;;21.30;45.56
73941;BME280;62294;48.554;10.202;2022-09-09T12:47:46;95832.91;;;21.24;46.78
73941;BME280;62294;48.554;10.202;2022-09-09T12:50:17;95820.78;;;21.58;46.26
73941;BME280;62294;48.554;10.202;2022-09-09T12:52:47;95819.84;;;22.32;43.94
73941;BME280;62294;48.554;10.202;2022-09-09T12:55:27;95819.09;;;21.25;45.33
73941;BME280;62294;48.554;10.202;2022-09-09T12:57:57;95818.34;;;21.94;43.13
73941;BME280;62294;48.554;10.202;2022-09-09T13:00:26;95819.31;;;21.84;43.87
73941;BME280;62294;48.554;10.202;2022-09-09T13:02:55;95818.78;;;22.01;42.49
73941;BME280;62294;48.554;10.202;2022-09-09T13:05:27;95815.25;;;22.33;41.04
73941;BME280;62294;48.554;10.202;2022-09-09T13:08:05;95812.44;;;21.92;42.27
73941;BME280;62294;48.554;10.202;2022-09-09T13:10:37;95816.19;;;21.40;44.48
73941;BME280;62294;48.554;10.202;2022-09-09T13:13:26;95811.94;;;21.15;44.67
73941;BME280;62294;48.554;10.202;2022-09-09T13:15:58;95809.78;;;20.70;46.00
73941;BME280;62294;48.554;10.202;2022-09-09T13:18:31;95799.44;;;20.30;46.28
73941;BME280;62294;48.554;10.202;2022-09-09T13:20:58;95793.91;;;20.87;44.46
73941;BME280;62294;48.554;10.202;2022-09-09T13:23:34;95801.88;;;20.55;45.52
73941;BME280;62294;48.554;10.202;2022-09-09T13:26:19;95798.50;;;20.63;43.39
73941;BME280;62294;48.554;10.202;2022-09-09T13:28:50;95801.97;;;20.45;45.52
73941;BME280;62294;48.554;10.202;2022-09-09T13:33:50;95802.56;;;20.08;45.08
73941;BME280;62294;48.554;10.202;2022-09-09T13:36:33;95802.56;;;20.42;45.25
73941;BME280;62294;48.554;10.202;2022-09-09T13:39:03;95805.69;;;20.25;45.79
73941;BME280;62294;48.554;10.202;2022-09-09T13:41:33;95800.13;;;20.40;45.25
73941;BME280;62294;48.554;10.202;2022-09-09T13:44:02;95791.72;;;20.89;44.72
73941;BME280;62294;48.554;10.202;2022-09-09T13:46:33;95790.78;;;21.92;42.12
73941;BME280;62294;48.554;10.202;2022-09-09T13:49:21;95792.91;;;22.68;42.04
73941;BME280;62294;48.554;10.202;2022-09-09T13:51:50;95796.25;;;22.92;42.26
73941;BME280;62294;48.554;10.202;2022-09-09T13:54:19;95795.16;;;23.29;41.34
73941;BME280;62294;48.554;10.202;2022-09-09T13:56:46;95791.53;;;23.34;41.17
73941;BME280;62294;48.554;10.202;2022-09-09T13:59:15;95780.06;;;23.50;40.90
73941;BME280;62294;48.554;10.202;2022-09-09T14:01:42;95785.97;;;23.03;41.55
73941;BME280;62294;48.554;10.202;2022-09-09T14:04:09;95783.19;;;22.94;41.40
73941;BME280;62294;48.554;10.202;2022-09-09T14:06:37;95791.31;;;22.81;41.71
73941;BME280;62294;48.554;10.202;2022-09-09T14:09:06;95779.25;;;22.87;41.82
73941;BME280;62294;48.554;10.202;2022-09-09T14:11:33;95791.94;;;22.18;43.32
73941;BME280;62294;48.554;10.202;2022-09-09T14:14:00;95790.41;;;21.80;45.10
73941;BME280;62294;48.554;10.202;2022-09-09T14:16:28;95788.69;;;20.72;45.29
73941;BME280;62294;48.554;10.202;2022-09-09T14:18:55;95790.88;;;20.70;45.25
73941;BME280;62294;48.554;10.202;2022-09-09T14:21:26;95791.72;;;20.89;46.04
73941;BME280;62294;48.554;10.202;2022-09-09T14:23:52;95795.59;;;20.36;47.07
73941;BME280;62294;48.554;10.202;2022-09-09T14:26:20;95789.25;;;20.22;47.30
73941;BME280;62294;48.554;10.202;2022-09-09T14:28:47;95793.28;;;20.19;47.87
73941;BME280;62294;48.554;10.202;2022-09-09T14:31:22;95789.03;;;20.13;47.15
73941;BME280;62294;48.554;10.202;2022-09-09T14:33:49;95792.41;;;20.00;47.34
73941;BME280;62294;48.554;10.202;2022-09-09T14:36:16;95797.16;;;19.85;48.41
73941;BME280;62294;48.554;10.202;2022-09-09T14:38:43;95801.81;;;19.74;51.29
73941;BME280;62294;48.554;10.202;2022-09-09T14:41:11;95814.91;;;19.03;57.24
73941;BME280;62294;48.554;10.202;2022-09-09T14:43:38;95810.88;;;18.21;64.42
73941;BME280;62294;48.554;10.202;2022-09-09T14:46:07;95801.81;;;17.67;66.00
73941;BME280;62294;48.554;10.202;2022-09-09T14:48:34;95805.84;;;17.69;67.46
73941;BME280;62294;48.554;10.202;2022-09-09T14:51:08;95803.41;;;17.83;67.24
73941;BME280;62294;48.554;10.202;2022-09-09T14:53:36;95808.47;;;18.10;68.16
73941;BME280;62294;48.554;10.202;2022-09-09T14:56:08;95804.38;;;18.42;69.70
73941;BME280;62294;48.554;10.202;2022-09-09T14:58:35;95807.63;;;18.50;66.98
73941;BME280;62294;48.554;10.202;2022-09-09T15:01:04;95801.75;;;18.27;69.65